createdAt,value
2023-05-30T00:01:22.411Z,100985.78
2023-05-30T00:06:24.612Z,100991.16
2023-05-30T00:11:29.676Z,100992.97
2023-05-30T00:16:33.266Z,100991.22
2023-05-30T00:21:36.946Z,100989.47
2023-05-30T00:26:39.056Z,100994.84
2023-05-30T00:31:41.158Z,100991.34
2023-05-30T00:36:43.227Z,100996.72
2023-05-30T00:41:45.168Z,100991.47
2023-05-30T00:46:47.369Z,100989.72
2023-05-30T00:51:49.589Z,100989.78
2023-05-30T00:56:53.109Z,100983.59
2023-05-30T01:01:55.230Z,100985.41
2023-05-30T01:06:57.224Z,101007.59
2023-05-30T01:12:20.047Z,101009.38
2023-05-30T01:17:32.877Z,101008.50
2023-05-30T01:23:15.370Z,101020.00
2023-05-30T01:28:22.586Z,101019.97
2023-05-30T01:33:27.571Z,101030.56
2023-05-30T01:38:29.792Z,101025.25
2023-05-30T01:43:50.419Z,101034.06
2023-05-30T01:49:20.216Z,101033.13
2023-05-30T01:54:23.455Z,101030.44
2023-05-30T01:59:27.670Z,101028.59
2023-05-30T02:04:29.937Z,101035.63
2023-05-30T02:09:32.147Z,101036.50
2023-05-30T02:14:34.154Z,101030.19
2023-05-30T02:19:36.296Z,101035.41
2023-05-30T02:24:38.398Z,101029.13
2023-05-30T02:29:40.418Z,101025.50
2023-05-30T02:34:42.501Z,101035.16
2023-05-30T02:39:44.790Z,101026.28
2023-05-30T02:44:46.859Z,101038.63
2023-05-30T02:49:48.958Z,101041.16
2023-05-30T02:54:50.945Z,101049.06
2023-05-30T02:59:53.658Z,101038.41
2023-05-30T03:04:56.155Z,101039.22
2023-05-30T03:09:58.276Z,101051.56
2023-05-30T03:15:00.389Z,101049.78
2023-05-30T03:20:02.689Z,101039.13
2023-05-30T03:25:05.215Z,101051.47
2023-05-30T03:30:08.076Z,101056.78
2023-05-30T03:35:10.462Z,101059.47
2023-05-30T03:40:13.191Z,101059.53
2023-05-30T03:45:15.377Z,101062.19
2023-05-30T03:50:17.292Z,101068.44
2023-05-30T03:55:19.477Z,101077.34
2023-05-30T04:00:21.515Z,101087.16
2023-05-30T04:05:23.665Z,101087.31
2023-05-30T04:10:25.850Z,101090.13
2023-05-30T04:15:28.039Z,101091.16
2023-05-30T04:20:30.127Z,101095.75
2023-05-30T04:25:32.378Z,101099.53
2023-05-30T04:30:37.184Z,101097.00
2023-05-30T04:35:40.642Z,101103.34
2023-05-30T04:40:42.722Z,101110.44
2023-05-30T04:45:46.005Z,101109.56
2023-05-30T04:50:48.805Z,101114.75
2023-05-30T04:55:51.785Z,101119.97
2023-05-30T05:00:55.199Z,101125.09
2023-05-30T05:05:57.867Z,101132.88
2023-05-30T05:10:59.995Z,101142.41
2023-05-30T05:16:02.620Z,101140.34
2023-05-30T05:21:05.106Z,101140.81
2023-05-30T05:26:07.328Z,101146.69
2023-05-30T05:31:09.469Z,101142.63
2023-05-30T05:36:12.419Z,101148.47
2023-05-30T05:41:14.731Z,101150.50
2023-05-30T05:46:18.010Z,101144.28
2023-05-30T05:51:20.150Z,101148.13
2023-05-30T05:56:23.286Z,101156.09
2023-05-30T06:01:25.448Z,101159.38
2023-05-30T06:06:27.737Z,101170.06
2023-05-30T06:11:32.195Z,101172.66
2023-05-30T06:16:35.155Z,101166.50
2023-05-30T06:21:37.461Z,101167.50
2023-05-30T06:26:40.139Z,101176.91
2023-05-30T06:31:43.466Z,101177.00
2023-05-30T06:36:45.796Z,101176.41
2023-05-30T06:41:48.522Z,101184.47
2023-05-30T06:46:51.106Z,101186.75
2023-05-30T06:51:53.233Z,101187.38
2023-05-30T06:56:55.389Z,101188.97
2023-05-30T07:01:57.610Z,101188.81
2023-05-30T07:07:01.132Z,101183.88
2023-05-30T07:12:03.623Z,101180.09
2023-05-30T07:17:08.131Z,101184.28
2023-05-30T07:22:10.449Z,101188.75
2023-05-30T07:27:12.792Z,101181.09
2023-05-30T07:32:15.178Z,101192.91
2023-05-30T07:37:17.338Z,101183.34
2023-05-30T07:42:19.421Z,101184.63
2023-05-30T07:47:21.617Z,101190.81
2023-05-30T07:52:23.860Z,101188.13
2023-05-30T07:57:26.705Z,101193.06
2023-05-30T08:02:29.279Z,101201.06
2023-05-30T08:07:34.199Z,101200.53
2023-05-30T08:12:36.489Z,101200.97
2023-05-30T08:17:42.675Z,101198.66
2023-05-30T08:22:44.834Z,101190.59
2023-05-30T08:27:46.942Z,101192.19
2023-05-30T08:32:49.325Z,101189.03
2023-05-30T08:37:51.695Z,101198.13
2023-05-30T08:42:53.896Z,101196.41
2023-05-30T08:47:58.232Z,101199.91
2023-05-30T08:53:09.963Z,101213.34
2023-05-30T08:58:25.853Z,101210.03
2023-05-30T09:03:30.516Z,101213.75
2023-05-30T09:08:33.723Z,101215.41
2023-05-30T09:13:36.395Z,101219.00
2023-05-30T09:18:38.701Z,101219.03
2023-05-30T09:23:43.366Z,101226.41
2023-05-30T09:28:50.010Z,101218.66
2023-05-30T09:33:53.089Z,101210.22
2023-05-30T09:39:00.354Z,101214.97
2023-05-30T09:44:07.557Z,101195.47
2023-05-30T09:49:15.372Z,101216.03
2023-05-30T09:54:17.515Z,101205.59
2023-05-30T09:59:23.164Z,101215.00
2023-05-30T10:04:26.422Z,101219.78
2023-05-30T10:09:28.669Z,101215.41
2023-05-30T10:14:30.792Z,101210.13
2023-05-30T10:20:06.133Z,101214.03
2023-05-30T10:25:10.014Z,101214.81
2023-05-30T10:30:14.194Z,101199.59
2023-05-30T10:35:19.413Z,101213.41
2023-05-30T10:40:47.174Z,101208.19
2023-05-30T10:46:09.414Z,101211.59
2023-05-30T10:51:12.753Z,101204.44
2023-05-30T10:56:36.302Z,101201.34
2023-05-30T11:01:40.133Z,101190.31
2023-05-30T11:06:47.200Z,101190.97
2023-05-30T11:11:57.220Z,101183.75
2023-05-30T11:17:05.249Z,101193.44
2023-05-30T11:22:24.095Z,101193.81
2023-05-30T11:27:26.265Z,101203.56
2023-05-30T11:32:31.573Z,101199.75
2023-05-30T11:37:36.846Z,101190.38
2023-05-30T11:42:39.127Z,101191.91
2023-05-30T11:47:46.764Z,101206.19
2023-05-30T11:52:50.327Z,101207.84
2023-05-30T11:57:52.585Z,101204.25
2023-05-30T12:02:56.397Z,101209.88
2023-05-30T12:07:59.526Z,101205.19
2023-05-30T12:13:02.533Z,101206.22
2023-05-30T12:18:05.553Z,101216.47
2023-05-30T12:23:07.830Z,101197.13
2023-05-30T12:28:14.012Z,101196.72
2023-05-30T12:33:17.530Z,101199.84
2023-05-30T12:38:20.908Z,101199.44
2023-05-30T12:43:29.196Z,101202.97
2023-05-30T12:48:31.541Z,101209.66
2023-05-30T12:53:33.728Z,101200.53
2023-05-30T12:58:36.117Z,101204.22
2023-05-30T13:03:38.584Z,101206.38
2023-05-30T13:08:41.394Z,101207.81
2023-05-30T13:13:43.879Z,101206.63
2023-05-30T13:18:46.144Z,101210.44
2023-05-30T13:23:48.304Z,101203.72
2023-05-30T13:28:50.616Z,101200.44
2023-05-30T13:33:52.798Z,101198.94
2023-05-30T13:38:55.421Z,101201.38
2023-05-30T13:43:59.269Z,101198.94
2023-05-30T13:49:05.654Z,101193.19
2023-05-30T13:54:07.938Z,101191.47
2023-05-30T13:59:12.136Z,101186.97
2023-05-30T14:04:14.258Z,101183.88
2023-05-30T14:09:16.707Z,101187.56
2023-05-30T14:14:19.381Z,101190.69
2023-05-30T14:19:21.730Z,101168.47
2023-05-30T14:24:23.824Z,101185.28
2023-05-30T14:29:25.985Z,101194.06
2023-05-30T14:34:28.093Z,101183.06
2023-05-30T14:39:31.060Z,101178.44
2023-05-30T14:44:35.338Z,101183.59
2023-05-30T14:49:39.567Z,101194.41
2023-05-30T14:54:42.437Z,101198.66
2023-05-30T14:59:44.777Z,101190.41
2023-05-30T15:04:47.219Z,101200.53
2023-05-30T15:09:49.462Z,101194.22
2023-05-30T15:14:52.055Z,101194.00
2023-05-30T15:19:55.425Z,101195.44
2023-05-30T15:24:57.812Z,101180.50
2023-05-30T15:30:00.161Z,101182.34
2023-05-30T15:35:02.371Z,101170.31
2023-05-30T15:40:06.135Z,101179.47
2023-05-30T15:45:09.583Z,101184.78
2023-05-30T15:50:14.227Z,101185.22
2023-05-30T15:55:18.346Z,101183.91
2023-05-30T16:00:22.839Z,101190.00
2023-05-30T16:05:26.426Z,101186.66
2023-05-30T16:10:28.773Z,101192.19
2023-05-30T16:15:33.103Z,101206.19
2023-05-30T16:20:35.669Z,101205.19
2023-05-30T16:25:37.967Z,101195.72
2023-05-30T16:30:40.549Z,101206.78
2023-05-30T16:35:43.116Z,101215.03
2023-05-30T16:40:45.757Z,101218.22
2023-05-30T16:45:48.001Z,101221.63
2023-05-30T16:50:50.065Z,101225.75
2023-05-30T16:55:52.133Z,101225.81
2023-05-30T17:00:54.276Z,101220.09
2023-05-30T17:05:56.657Z,101223.47
2023-05-30T17:10:58.848Z,101234.47
2023-05-30T17:16:02.387Z,101236.94
2023-05-30T17:21:06.070Z,101233.72
2023-05-30T17:26:09.074Z,101245.75
2023-05-30T17:31:12.291Z,101245.41
2023-05-30T17:36:14.347Z,101248.41
2023-05-30T17:41:17.161Z,101260.59
2023-05-30T17:46:24.529Z,101260.19
2023-05-30T17:51:26.950Z,101259.91
2023-05-30T17:56:31.310Z,101265.78
2023-05-30T18:01:35.069Z,101272.41
2023-05-30T18:06:37.397Z,101273.03
2023-05-30T18:11:39.738Z,101277.28
2023-05-30T18:16:42.002Z,101271.38
2023-05-30T18:21:53.730Z,101278.00
2023-05-30T18:26:56.471Z,101273.91
2023-05-30T18:31:58.725Z,101285.16
2023-05-30T18:37:01.450Z,101288.44
2023-05-30T18:42:04.481Z,101293.56
2023-05-30T18:47:08.460Z,101306.72
2023-05-30T18:52:12.191Z,101312.75
2023-05-30T18:57:14.446Z,101319.53
2023-05-30T19:02:16.683Z,101309.34
2023-05-30T19:07:19.186Z,101312.75
2023-05-30T19:12:21.215Z,101321.25
2023-05-30T19:17:23.286Z,101327.22
2023-05-30T19:22:25.391Z,101335.19
2023-05-30T19:27:27.522Z,101328.91
2023-05-30T19:32:30.039Z,101334.28
2023-05-30T19:37:32.183Z,101336.16
2023-05-30T19:42:36.341Z,101337.13
2023-05-30T19:47:38.520Z,101335.59
2023-05-30T19:52:49.641Z,101338.44
2023-05-30T19:57:56.464Z,101344.94
2023-05-30T20:03:01.014Z,101328.16
2023-05-30T20:08:04.660Z,101343.56
2023-05-30T20:13:06.998Z,101346.44
2023-05-30T20:18:09.656Z,101355.59
2023-05-30T20:23:12.298Z,101345.06
2023-05-30T20:28:18.917Z,101348.84
2023-05-30T20:33:24.449Z,101358.84
2023-05-30T20:38:26.865Z,101357.22
2023-05-30T20:43:30.208Z,101366.31
2023-05-30T20:48:32.496Z,101365.63
2023-05-30T20:53:35.216Z,101377.34
2023-05-30T20:58:37.402Z,101380.19
2023-05-30T21:03:39.537Z,101380.38
2023-05-30T21:08:41.800Z,101372.53
2023-05-30T21:13:45.658Z,101390.50
2023-05-30T21:18:48.177Z,101385.19
2023-05-30T21:23:50.862Z,101404.03
2023-05-30T21:28:54.302Z,101404.16
2023-05-30T21:33:58.032Z,101411.38
2023-05-30T21:39:00.141Z,101416.84
2023-05-30T21:44:02.638Z,101413.41
2023-05-30T21:49:07.332Z,101424.19
2023-05-30T21:54:09.400Z,101431.38
2023-05-30T21:59:11.448Z,101432.31
2023-05-30T22:04:13.521Z,101435.06
2023-05-30T22:09:15.750Z,101441.34
2023-05-30T22:14:18.037Z,101444.03
2023-05-30T22:19:20.234Z,101445.88
2023-05-30T22:24:22.248Z,101456.63
2023-05-30T22:29:24.461Z,101451.31
2023-05-30T22:34:26.566Z,101456.69
2023-05-30T22:39:31.145Z,101450.47
2023-05-30T22:44:33.896Z,101457.59
2023-05-30T22:49:37.934Z,101450.50
2023-05-30T22:54:40.233Z,101460.28
2023-05-30T22:59:42.292Z,101455.84
2023-05-30T23:04:46.133Z,101457.66
2023-05-30T23:35:13.857Z,101463.78
2023-05-30T23:40:16.177Z,101465.53
2023-05-30T23:45:18.290Z,101469.94
2023-05-30T23:50:20.369Z,101475.22
2023-05-30T23:55:22.543Z,101478.78
